createdAt,value
2022-08-07T00:00:56.937Z,58.19
2022-08-07T00:02:57.828Z,57.81
2022-08-07T00:04:56.301Z,57.78
2022-08-07T00:06:54.592Z,57.78
2022-08-07T00:08:54.229Z,57.65
2022-08-07T00:10:58.135Z,57.65
2022-08-07T00:12:57.683Z,57.68
2022-08-07T00:14:59.172Z,57.83
2022-08-07T00:16:57.708Z,57.75
2022-08-07T00:18:56.037Z,57.48
2022-08-07T00:20:57.477Z,57.65
2022-08-07T00:22:59.757Z,57.43
2022-08-07T00:24:59.492Z,57.30
2022-08-07T00:27:06.758Z,58.00
2022-08-07T00:29:06.153Z,57.72
2022-08-07T00:31:12.699Z,57.88
2022-08-07T00:33:14.739Z,58.18
2022-08-07T00:35:13.085Z,58.18
2022-08-07T00:37:15.077Z,58.49
2022-08-07T00:39:16.940Z,58.73
2022-08-07T00:41:17.024Z,58.82
2022-08-07T00:44:00.521Z,58.85
2022-08-07T00:45:34.291Z,59.18
2022-08-07T00:48:07.792Z,59.49
2022-08-07T00:50:20.774Z,59.34
2022-08-07T00:52:11.035Z,58.65
2022-08-07T00:54:11.073Z,57.89
2022-08-07T00:56:13.998Z,58.04
2022-08-07T00:58:14.363Z,58.61
2022-08-07T01:00:15.738Z,58.60
2022-08-07T01:02:28.708Z,58.55
2022-08-07T01:04:27.912Z,58.53
2022-08-07T01:06:29.725Z,58.51
2022-08-07T01:08:28.308Z,58.14
2022-08-07T01:10:26.679Z,57.97
2022-08-07T01:12:29.628Z,58.34
2022-08-07T01:14:31.257Z,58.68
2022-08-07T01:16:31.078Z,58.13
2022-08-07T01:18:30.987Z,58.61
2022-08-07T01:20:43.066Z,58.47
2022-08-07T01:22:46.652Z,58.61
2022-08-07T01:24:53.256Z,58.55
2022-08-07T01:26:53.775Z,58.10
2022-08-07T01:28:55.281Z,58.20
2022-08-07T01:30:58.315Z,58.39
2022-08-07T01:32:58.364Z,58.12
2022-08-07T01:34:59.460Z,58.07
2022-08-07T01:36:58.465Z,58.14
2022-08-07T01:39:01.246Z,58.41
2022-08-07T01:41:05.484Z,58.42
2022-08-07T01:43:05.972Z,58.53
2022-08-07T01:45:15.678Z,58.28
2022-08-07T01:48:20.615Z,57.87
2022-08-07T01:49:40.928Z,58.14
2022-08-07T01:52:01.573Z,57.76
2022-08-07T01:54:12.761Z,57.52
2022-08-07T01:56:29.008Z,57.50
2022-08-07T01:58:33.418Z,57.73
2022-08-07T02:00:35.513Z,58.32
2022-08-07T02:03:18.835Z,59.06
2022-08-07T02:05:16.073Z,60.00
2022-08-07T02:07:50.030Z,60.85
2022-08-07T02:09:59.098Z,61.18
2022-08-07T02:12:17.762Z,61.63
2022-08-07T02:14:36.277Z,62.94
2022-08-07T02:16:45.474Z,63.50
2022-08-07T02:18:47.225Z,64.29
2022-08-07T02:20:51.864Z,67.02
2022-08-07T02:22:59.645Z,69.07
2022-08-07T02:25:01.901Z,70.71
2022-08-07T02:27:07.070Z,73.33
2022-08-07T02:29:13.673Z,74.36
2022-08-07T02:31:28.453Z,75.46
2022-08-07T02:33:33.025Z,75.53
2022-08-07T02:36:29.579Z,78.24
2022-08-07T02:38:12.404Z,77.59
2022-08-07T02:40:30.673Z,77.27
2022-08-07T02:42:33.984Z,77.54
2022-08-07T02:44:34.402Z,77.46
2022-08-07T02:46:37.192Z,78.46
2022-08-07T02:48:55.071Z,80.90
2022-08-07T02:50:56.402Z,81.32
2022-08-07T02:53:03.285Z,83.64
2022-08-07T02:55:27.368Z,80.34
2022-08-07T02:57:34.092Z,79.21
2022-08-07T02:59:35.873Z,79.16
2022-08-07T03:01:40.502Z,77.62
2022-08-07T03:03:49.622Z,80.01
2022-08-07T03:05:55.965Z,79.84
2022-08-07T03:08:07.395Z,79.05
2022-08-07T03:10:11.838Z,80.75
2022-08-07T03:12:21.874Z,80.07
2022-08-07T03:14:24.026Z,79.34
2022-08-07T03:16:27.792Z,78.87
2022-08-07T03:18:34.991Z,80.26
2022-08-07T03:20:36.191Z,80.04
2022-08-07T03:22:35.674Z,80.83
2022-08-07T03:24:34.571Z,81.16
2022-08-07T03:26:43.059Z,81.16
2022-08-07T03:28:56.765Z,80.35
2022-08-07T03:31:12.819Z,81.37
2022-08-07T03:33:14.532Z,81.39
2022-08-07T03:35:26.163Z,81.38
2022-08-07T03:37:27.681Z,80.99
2022-08-07T03:39:59.113Z,80.66
2022-08-07T03:41:50.847Z,80.31
2022-08-07T03:43:57.383Z,81.39
2022-08-07T03:46:03.756Z,82.25
2022-08-07T03:48:11.525Z,81.96
2022-08-07T03:50:11.066Z,79.99
2022-08-07T03:52:22.307Z,77.95
2022-08-07T03:54:35.770Z,75.69
2022-08-07T03:57:04.030Z,70.79
2022-08-07T03:59:10.156Z,68.64
2022-08-07T04:01:17.473Z,69.19
2022-08-07T04:03:18.155Z,67.42
2022-08-07T04:05:24.173Z,64.60
2022-08-07T04:07:46.531Z,64.21
2022-08-07T04:09:51.222Z,63.40
2022-08-07T04:12:23.355Z,63.36
2022-08-07T04:14:37.998Z,62.24
2022-08-07T04:16:35.430Z,60.26
2022-08-07T04:18:59.643Z,61.01
2022-08-07T04:20:55.291Z,60.94
2022-08-07T04:23:02.004Z,61.73
2022-08-07T04:25:12.629Z,61.42
2022-08-07T04:27:20.311Z,60.69
2022-08-07T04:29:19.955Z,63.10
2022-08-07T04:32:02.346Z,64.77
2022-08-07T04:33:55.169Z,65.77
2022-08-07T04:35:56.623Z,67.37
2022-08-07T04:38:06.796Z,68.80
2022-08-07T04:40:08.361Z,70.49
2022-08-07T04:42:07.231Z,71.83
2022-08-07T04:44:11.763Z,72.14
2022-08-07T04:46:25.950Z,71.97
2022-08-07T04:48:36.731Z,71.68
2022-08-07T04:50:40.746Z,71.18
2022-08-07T04:52:52.856Z,69.49
2022-08-07T04:55:15.195Z,69.55
2022-08-07T04:58:12.051Z,67.20
2022-08-07T05:00:14.603Z,66.39
2022-08-07T05:02:20.540Z,66.88
2022-08-07T05:04:23.709Z,65.63
2022-08-07T05:06:43.072Z,63.52
2022-08-07T05:09:00.793Z,65.18
2022-08-07T05:11:07.066Z,66.60
2022-08-07T05:14:55.126Z,66.79
2022-08-07T05:15:40.115Z,67.57
2022-08-07T05:17:52.068Z,66.25
2022-08-07T05:19:55.971Z,66.16
2022-08-07T05:22:01.993Z,63.95
2022-08-07T05:24:12.815Z,63.29
2022-08-07T05:26:23.534Z,61.83
2022-08-07T05:28:27.976Z,62.04
2022-08-07T05:30:32.780Z,59.50
2022-08-07T05:32:34.148Z,58.38
2022-08-07T05:34:33.887Z,57.51
2022-08-07T05:36:35.483Z,57.43
2022-08-07T05:39:00.058Z,57.49
2022-08-07T05:41:01.109Z,56.08
2022-08-07T05:42:59.906Z,55.09
2022-08-07T05:45:14.377Z,54.13
2022-08-07T05:47:20.060Z,52.54
2022-08-07T05:49:22.586Z,53.05
2022-08-07T05:51:23.809Z,53.63
2022-08-07T05:54:13.263Z,52.77
2022-08-07T05:56:01.856Z,51.46
2022-08-07T05:58:01.819Z,50.67
2022-08-07T06:00:01.984Z,53.01
2022-08-07T06:02:18.801Z,50.63
2022-08-07T06:04:26.368Z,50.11
2022-08-07T06:06:32.657Z,49.03
2022-08-07T06:08:38.090Z,48.71
2022-08-07T06:10:42.903Z,49.14
2022-08-07T06:12:42.385Z,49.60
2022-08-07T06:14:41.112Z,49.94
2022-08-07T06:16:50.765Z,51.75
2022-08-07T06:18:59.152Z,53.59
2022-08-07T06:22:16.648Z,53.21
2022-08-07T06:23:46.241Z,52.89
2022-08-07T06:25:36.179Z,51.61
2022-08-07T06:28:00.098Z,50.71
2022-08-07T06:29:55.677Z,49.10
2022-08-07T06:31:57.068Z,47.50
2022-08-07T06:33:55.600Z,47.92
2022-08-07T06:36:13.219Z,47.52
2022-08-07T06:38:25.720Z,47.66
2022-08-07T06:40:34.453Z,48.00
2022-08-07T06:42:38.313Z,48.03
2022-08-07T06:44:39.739Z,47.92
2022-08-07T06:46:40.844Z,48.92
2022-08-07T06:48:44.807Z,48.53
2022-08-07T06:50:50.416Z,47.29
2022-08-07T06:52:55.948Z,45.99
2022-08-07T06:55:31.894Z,46.37
2022-08-07T06:57:19.801Z,45.35
2022-08-07T07:00:11.415Z,45.21
2022-08-07T07:02:02.449Z,46.37
2022-08-07T07:04:16.430Z,46.52
2022-08-07T07:06:26.142Z,46.02
2022-08-07T07:08:27.832Z,45.31
2022-08-07T07:10:30.461Z,44.40
2022-08-07T07:12:41.723Z,43.15
2022-08-07T07:14:53.049Z,43.93
2022-08-07T07:16:54.042Z,43.53
2022-08-07T07:18:58.888Z,42.86
2022-08-07T07:20:59.154Z,44.99
2022-08-07T07:24:08.527Z,44.23
2022-08-07T07:26:35.183Z,43.76
2022-08-07T07:27:58.524Z,43.41
2022-08-07T07:30:09.193Z,43.96
2022-08-07T07:32:14.484Z,44.25
2022-08-07T07:34:18.134Z,43.71
2022-08-07T07:36:18.063Z,43.84
2022-08-07T07:38:20.790Z,43.46
2022-08-07T07:42:55.832Z,42.38
2022-08-07T07:44:56.777Z,41.41
2022-08-07T07:47:09.300Z,42.07
2022-08-07T07:50:34.580Z,41.58
2022-08-07T07:54:17.495Z,40.10
2022-08-07T07:56:34.602Z,40.35
2022-08-07T07:58:41.109Z,41.20
2022-08-07T08:00:48.705Z,39.70
2022-08-07T08:03:04.500Z,39.79
2022-08-07T08:05:11.344Z,40.57
2022-08-07T08:07:20.243Z,40.79
2022-08-07T08:12:02.389Z,41.16
2022-08-07T08:14:31.198Z,40.94
2022-08-07T08:16:37.783Z,39.52
2022-08-07T08:18:39.674Z,39.14
2022-08-07T08:20:40.283Z,38.14
2022-08-07T08:23:01.929Z,37.49
2022-08-07T08:25:43.053Z,36.91
2022-08-07T08:27:56.492Z,37.53
2022-08-07T08:30:04.703Z,36.99
2022-08-07T08:32:18.619Z,37.01
2022-08-07T08:34:27.024Z,36.25
2022-08-07T08:36:30.491Z,36.12
2022-08-07T08:38:38.592Z,35.57
2022-08-07T08:40:52.870Z,33.99
2022-08-07T08:42:57.335Z,34.54
2022-08-07T08:45:05.495Z,34.84
2022-08-07T08:47:09.897Z,36.72
2022-08-07T08:49:33.209Z,35.82
2022-08-07T08:52:12.971Z,34.53
2022-08-07T08:54:07.765Z,32.55
2022-08-07T08:56:09.759Z,31.95
2022-08-07T08:58:20.416Z,31.07
2022-08-07T09:00:31.530Z,30.75
2022-08-07T09:02:43.756Z,31.26
2022-08-07T09:04:56.813Z,30.70
2022-08-07T09:07:03.415Z,30.61
2022-08-07T09:09:20.668Z,32.30
2022-08-07T09:11:50.653Z,30.87
2022-08-07T09:14:14.570Z,30.83
2022-08-07T09:16:30.008Z,31.11
2022-08-07T09:18:58.569Z,30.38
2022-08-07T09:21:13.982Z,29.11
2022-08-07T09:24:31.402Z,29.33
2022-08-07T09:26:34.545Z,28.55
2022-08-07T09:30:06.561Z,29.44
2022-08-07T09:31:04.829Z,29.85
2022-08-07T09:33:40.722Z,31.20
2022-08-07T09:36:05.469Z,30.82
2022-08-07T09:38:23.271Z,31.00
2022-08-07T09:40:33.178Z,29.73
2022-08-07T09:42:50.469Z,28.79
2022-08-07T09:47:25.693Z,27.91
2022-08-07T09:48:00.132Z,28.99
2022-08-07T09:50:00.977Z,29.57
2022-08-07T09:52:33.836Z,28.30
2022-08-07T09:54:37.415Z,28.46
2022-08-07T09:57:12.884Z,29.22
2022-08-07T09:59:31.079Z,29.53
2022-08-07T10:02:03.209Z,29.78
2022-08-07T10:04:32.601Z,28.91
2022-08-07T10:06:55.545Z,28.78
2022-08-07T10:09:15.416Z,28.39
2022-08-07T10:12:03.154Z,31.13
2022-08-07T10:14:07.104Z,33.08
2022-08-07T10:16:21.443Z,33.91
2022-08-07T10:18:50.666Z,31.21
2022-08-07T10:21:19.833Z,31.06
2022-08-07T10:24:04.906Z,32.90
2022-08-07T10:26:24.841Z,35.11
2022-08-07T10:28:43.452Z,35.75
2022-08-07T10:31:11.290Z,34.71
2022-08-07T10:34:05.806Z,34.11
2022-08-07T10:36:17.128Z,32.72
2022-08-07T10:38:48.448Z,34.66
2022-08-07T10:40:53.354Z,33.14
2022-08-07T10:43:02.473Z,32.19
2022-08-07T10:45:08.785Z,32.00
2022-08-07T10:47:31.187Z,31.08
2022-08-07T10:52:33.584Z,34.25
2022-08-07T10:54:42.534Z,34.50
2022-08-07T10:57:08.517Z,35.69
2022-08-07T10:59:22.182Z,37.78
2022-08-07T11:01:51.379Z,38.49
2022-08-07T11:04:16.520Z,39.64
2022-08-07T11:06:26.878Z,40.73
2022-08-07T11:08:34.114Z,40.94
2022-08-07T11:10:39.309Z,40.35
2022-08-07T11:12:44.185Z,39.35
2022-08-07T11:14:59.822Z,39.24
2022-08-07T11:17:07.298Z,38.54
2022-08-07T11:19:12.772Z,38.56
2022-08-07T11:21:18.957Z,38.73
2022-08-07T11:23:30.826Z,38.22
2022-08-07T11:25:48.041Z,38.05
2022-08-07T11:28:02.466Z,38.88
2022-08-07T11:30:17.663Z,39.46
2022-08-07T11:32:25.866Z,39.74
2022-08-07T11:34:32.430Z,40.43
2022-08-07T11:36:45.091Z,41.21
2022-08-07T11:38:51.234Z,40.62
2022-08-07T11:40:58.596Z,41.10
2022-08-07T11:43:04.480Z,43.04
2022-08-07T11:45:14.410Z,43.45
2022-08-07T11:47:39.044Z,44.13
2022-08-07T11:50:32.003Z,43.86
2022-08-07T11:52:47.020Z,45.15
2022-08-07T11:55:02.610Z,45.05
2022-08-07T11:57:59.506Z,45.39
2022-08-07T12:00:10.535Z,44.84
2022-08-07T12:02:32.250Z,44.42
2022-08-07T12:04:46.506Z,43.31
2022-08-07T12:07:00.373Z,42.67
2022-08-07T12:09:09.198Z,43.18
2022-08-07T12:11:22.453Z,43.99
2022-08-07T12:13:37.236Z,44.35
2022-08-07T12:18:39.278Z,44.63
2022-08-07T12:20:49.526Z,45.22
2022-08-07T12:23:09.196Z,44.95
2022-08-07T12:26:05.351Z,45.57
2022-08-07T12:28:09.000Z,45.59
2022-08-07T12:30:10.034Z,46.06
2022-08-07T12:32:18.638Z,46.23
2022-08-07T12:34:21.883Z,46.76
2022-08-07T12:36:30.226Z,46.25
2022-08-07T12:38:42.916Z,47.47
2022-08-07T12:40:50.386Z,47.82
2022-08-07T12:42:55.199Z,47.17
2022-08-07T12:44:57.558Z,44.88
2022-08-07T12:47:08.750Z,44.82
2022-08-07T12:49:39.367Z,43.83
2022-08-07T12:51:51.272Z,43.99
2022-08-07T12:54:36.782Z,44.50
2022-08-07T12:56:34.802Z,44.92
2022-08-07T12:58:39.309Z,44.71
2022-08-07T13:00:50.113Z,44.39
2022-08-07T13:03:09.577Z,44.86
2022-08-07T13:06:02.708Z,44.35
2022-08-07T13:08:25.813Z,43.40
2022-08-07T13:10:51.351Z,43.36
2022-08-07T13:13:01.567Z,42.41
2022-08-07T13:15:09.738Z,41.76
2022-08-07T13:17:21.362Z,41.48
2022-08-07T13:19:50.675Z,42.48
2022-08-07T13:22:06.172Z,42.59
2022-08-07T13:24:25.875Z,42.91
2022-08-07T13:26:38.467Z,41.85
2022-08-07T13:28:48.484Z,41.71
2022-08-07T13:31:02.157Z,39.66
2022-08-07T13:34:11.694Z,40.49
2022-08-07T13:35:59.501Z,41.04
2022-08-07T13:37:58.745Z,41.39
2022-08-07T13:40:36.154Z,41.39
2022-08-07T13:42:34.128Z,41.47
2022-08-07T13:44:39.876Z,41.25
2022-08-07T13:46:49.966Z,40.90
2022-08-07T13:48:58.350Z,40.54
2022-08-07T13:51:01.427Z,40.32
2022-08-07T13:53:01.218Z,40.07
2022-08-07T13:55:06.766Z,39.27
2022-08-07T13:57:14.660Z,39.65
2022-08-07T13:59:27.740Z,39.32
2022-08-07T14:01:29.007Z,40.45
2022-08-07T14:04:05.182Z,40.53
2022-08-07T14:05:58.071Z,40.58
2022-08-07T14:08:01.346Z,40.61
2022-08-07T14:10:12.645Z,40.32
2022-08-07T14:12:29.593Z,41.31
2022-08-07T14:14:32.954Z,40.79
2022-08-07T14:16:35.354Z,41.15
2022-08-07T14:18:42.760Z,41.55
2022-08-07T14:20:54.630Z,41.98
2022-08-07T14:23:01.805Z,42.80
2022-08-07T14:25:09.640Z,44.26
2022-08-07T14:27:16.100Z,45.32
2022-08-07T14:30:05.897Z,45.68
2022-08-07T14:31:57.940Z,45.95
2022-08-07T14:34:00.682Z,46.87
2022-08-07T14:36:00.783Z,46.85
2022-08-07T14:38:05.494Z,47.52
2022-08-07T14:40:16.870Z,47.80
2022-08-07T14:42:32.440Z,48.13
2022-08-07T14:44:34.772Z,48.22
2022-08-07T14:46:35.366Z,47.66
2022-08-07T14:48:37.065Z,47.12
2022-08-07T14:50:37.670Z,46.61
2022-08-07T14:52:39.024Z,46.40
2022-08-07T14:54:42.119Z,45.83
2022-08-07T14:57:02.091Z,45.30
2022-08-07T14:59:13.958Z,45.47
2022-08-07T15:01:42.565Z,44.69
2022-08-07T15:03:52.259Z,45.38
2022-08-07T15:05:54.661Z,45.85
2022-08-07T15:08:13.989Z,45.06
2022-08-07T15:10:19.634Z,45.07
2022-08-07T15:12:30.520Z,45.40
2022-08-07T15:14:31.951Z,44.75
2022-08-07T15:16:55.775Z,44.50
2022-08-07T15:19:02.622Z,44.31
2022-08-07T15:25:53.403Z,44.35
2022-08-07T15:28:33.173Z,44.42
2022-08-07T15:32:50.736Z,44.18
2022-08-07T15:35:04.207Z,44.98
2022-08-07T15:37:06.913Z,44.94
2022-08-07T15:39:10.386Z,44.73
2022-08-07T15:41:23.488Z,44.51
2022-08-07T15:43:53.069Z,44.93
2022-08-07T15:45:58.254Z,44.70
2022-08-07T15:48:04.893Z,44.41
2022-08-07T15:50:07.098Z,44.76
2022-08-07T15:52:13.639Z,44.94
2022-08-07T15:54:15.105Z,44.94
2022-08-07T15:56:15.233Z,44.74
2022-08-07T15:58:20.926Z,44.68
2022-08-07T16:00:31.503Z,44.81
2022-08-07T16:02:39.706Z,45.13
2022-08-07T16:04:40.006Z,45.55
2022-08-07T16:06:43.923Z,45.24
2022-08-07T16:08:45.863Z,45.45
2022-08-07T16:10:49.214Z,44.56
2022-08-07T16:13:05.814Z,44.47
2022-08-07T16:15:55.209Z,44.66
2022-08-07T16:18:03.952Z,44.67
2022-08-07T16:20:33.998Z,44.67
2022-08-07T16:23:05.474Z,45.02
2022-08-07T16:25:53.026Z,45.39
2022-08-07T16:27:59.744Z,45.56
2022-08-07T16:30:31.870Z,45.56
2022-08-07T16:32:35.167Z,45.54
2022-08-07T16:34:56.809Z,46.37
2022-08-07T16:38:06.628Z,46.66
2022-08-07T16:40:28.720Z,47.10
2022-08-07T16:42:42.484Z,46.99
2022-08-07T16:45:15.030Z,47.77
2022-08-07T16:48:13.433Z,49.42
2022-08-07T16:50:39.348Z,60.30
2022-08-07T16:53:20.751Z,70.58
2022-08-07T16:55:47.135Z,76.37
2022-08-07T16:58:02.701Z,82.50
2022-08-07T17:00:15.090Z,80.94
2022-08-07T17:03:05.841Z,83.21
2022-08-07T17:06:02.224Z,84.19
2022-08-07T17:07:55.760Z,83.50
2022-08-07T17:10:06.419Z,80.23
2022-08-07T17:12:34.167Z,80.01
2022-08-07T17:14:43.142Z,73.65
2022-08-07T17:16:55.751Z,74.62
2022-08-07T17:19:04.769Z,75.64
2022-08-07T17:21:04.119Z,76.55
2022-08-07T17:23:36.971Z,75.22
2022-08-07T17:25:51.711Z,73.08
2022-08-07T17:28:00.343Z,72.33
2022-08-07T17:30:16.052Z,72.29
2022-08-07T17:32:30.860Z,71.69
2022-08-07T17:35:02.754Z,70.84
2022-08-07T17:37:09.714Z,70.84
2022-08-07T17:39:20.927Z,73.42
2022-08-07T17:42:02.452Z,73.06
2022-08-07T17:44:03.230Z,74.21
2022-08-07T17:46:13.532Z,75.16
2022-08-07T17:48:13.280Z,77.90
2022-08-07T17:50:19.330Z,77.36
2022-08-07T17:52:30.663Z,75.87
2022-08-07T17:54:40.244Z,75.20
2022-08-07T17:57:01.220Z,73.98
2022-08-07T17:59:09.074Z,74.92
2022-08-07T18:01:21.254Z,74.37
2022-08-07T18:03:25.665Z,73.62
2022-08-07T18:06:03.500Z,73.05
2022-08-07T18:08:14.021Z,71.57
2022-08-07T18:10:32.162Z,72.84
2022-08-07T18:12:43.144Z,73.02
2022-08-07T18:14:46.621Z,74.25
2022-08-07T18:16:57.760Z,75.46
2022-08-07T18:21:08.596Z,75.07
2022-08-07T18:21:51.837Z,72.97
2022-08-07T18:24:02.165Z,74.93
2022-08-07T18:26:15.032Z,75.44
2022-08-07T18:28:36.109Z,74.12
2022-08-07T18:30:51.104Z,74.23
2022-08-07T18:33:55.105Z,74.58
2022-08-07T18:36:32.668Z,71.45
2022-08-07T18:38:55.411Z,67.98
2022-08-07T18:41:10.222Z,69.24
2022-08-07T18:43:37.227Z,70.23
2022-08-07T18:46:21.920Z,69.81
2022-08-07T18:49:03.599Z,70.37
2022-08-07T18:51:04.165Z,71.02
2022-08-07T18:53:12.548Z,71.07
2022-08-07T18:55:42.700Z,73.46
2022-08-07T18:57:58.632Z,68.10
2022-08-07T19:00:33.363Z,67.25
2022-08-07T19:02:36.915Z,66.52
2022-08-07T19:04:59.589Z,67.95
2022-08-07T19:07:10.915Z,67.14
2022-08-07T19:09:55.957Z,67.04
2022-08-07T19:11:52.053Z,65.66
2022-08-07T19:14:17.309Z,65.70
2022-08-07T19:17:01.406Z,66.21
2022-08-07T19:19:00.904Z,66.74
2022-08-07T19:21:09.858Z,66.05
2022-08-07T19:23:29.888Z,66.84
2022-08-07T19:26:22.683Z,67.66
2022-08-07T19:28:56.497Z,66.02
2022-08-07T19:31:00.066Z,65.02
2022-08-07T19:32:46.307Z,64.12
2022-08-07T19:34:50.067Z,65.21
2022-08-07T19:36:53.626Z,64.78
2022-08-07T19:38:56.737Z,64.48
2022-08-07T19:41:00.561Z,63.38
2022-08-07T19:42:59.522Z,64.16
2022-08-07T19:46:06.249Z,63.85
2022-08-07T19:47:56.079Z,64.38
2022-08-07T19:50:53.452Z,66.31
2022-08-07T19:52:59.141Z,65.14
2022-08-07T19:55:00.143Z,65.33
2022-08-07T19:58:03.626Z,66.19
2022-08-07T19:59:24.591Z,66.62
2022-08-07T20:01:57.682Z,66.20
2022-08-07T20:03:58.833Z,65.32
2022-08-07T20:06:03.262Z,65.53
2022-08-07T20:08:04.303Z,65.69
2022-08-07T20:10:37.128Z,65.85
2022-08-07T20:12:34.326Z,66.39
2022-08-07T20:14:36.707Z,66.86
2022-08-07T20:16:56.555Z,67.22
2022-08-07T20:18:58.961Z,67.30
2022-08-07T20:20:59.249Z,67.87
2022-08-07T20:23:23.295Z,68.04
2022-08-07T20:25:25.691Z,68.18
2022-08-07T20:27:46.467Z,68.55
2022-08-07T20:29:58.427Z,68.81
2022-08-07T20:32:00.068Z,69.81
2022-08-07T20:34:02.016Z,69.76
2022-08-07T20:36:03.379Z,69.67
2022-08-07T20:38:03.051Z,69.93
2022-08-07T20:40:05.305Z,70.35
2022-08-07T20:42:23.924Z,70.80
2022-08-07T20:44:30.368Z,71.98
2022-08-07T20:46:33.355Z,72.45
2022-08-07T20:49:55.172Z,73.08
2022-08-07T20:51:09.616Z,72.84
2022-08-07T20:53:13.503Z,73.44
2022-08-07T20:55:16.173Z,74.04
2022-08-07T20:57:16.087Z,73.55
2022-08-07T21:00:04.606Z,74.10
2022-08-07T21:01:55.388Z,73.03
2022-08-07T21:04:19.472Z,71.71
2022-08-07T21:06:28.177Z,71.43
2022-08-07T21:08:38.292Z,70.94
2022-08-07T21:10:40.645Z,70.23
2022-08-07T21:12:39.795Z,71.51
2022-08-07T21:14:53.375Z,72.94
2022-08-07T21:18:00.741Z,73.58
2022-08-07T21:19:17.444Z,73.92
2022-08-07T21:21:21.461Z,74.32
2022-08-07T21:23:49.271Z,74.92
2022-08-07T21:26:03.118Z,75.51
2022-08-07T21:28:10.304Z,74.39
2022-08-07T21:30:15.492Z,74.27
2022-08-07T21:32:47.636Z,73.15
2022-08-07T21:34:48.533Z,73.75
2022-08-07T21:36:54.182Z,73.58
2022-08-07T21:39:45.493Z,74.38
2022-08-07T21:41:37.809Z,75.06
2022-08-07T21:43:57.067Z,74.98
2022-08-07T21:46:11.145Z,75.78
2022-08-07T21:48:27.088Z,75.91
2022-08-07T21:50:39.775Z,77.16
2022-08-07T21:52:49.267Z,77.55
2022-08-07T21:54:59.442Z,79.06
2022-08-07T21:57:30.858Z,80.20
2022-08-07T22:00:04.646Z,79.80
2022-08-07T22:02:11.497Z,80.68
2022-08-07T22:04:17.743Z,80.29
2022-08-07T22:06:28.874Z,81.20
2022-08-07T22:08:38.990Z,80.90
2022-08-07T22:10:42.295Z,81.65
2022-08-07T22:12:46.841Z,81.37
2022-08-07T22:15:00.748Z,80.78
2022-08-07T22:17:02.052Z,80.28
2022-08-07T22:19:16.229Z,80.93
2022-08-07T22:21:20.411Z,81.10
2022-08-07T22:23:23.736Z,81.13
2022-08-07T22:25:42.991Z,80.32
2022-08-07T22:28:07.176Z,80.09
2022-08-07T22:30:17.154Z,80.99
2022-08-07T22:32:21.226Z,81.09
2022-08-07T22:34:35.818Z,81.06
2022-08-07T22:36:46.565Z,81.09
2022-08-07T22:38:52.275Z,81.19
2022-08-07T22:40:58.014Z,80.55
2022-08-07T22:43:02.188Z,80.88
2022-08-07T22:45:10.900Z,81.16
2022-08-07T22:48:01.136Z,81.06
2022-08-07T22:50:39.059Z,81.15
2022-08-07T22:53:15.134Z,81.67
2022-08-07T22:55:30.606Z,82.11
2022-08-07T22:57:55.604Z,81.65
2022-08-07T23:00:04.393Z,81.84
2022-08-07T23:02:27.315Z,82.10
2022-08-07T23:06:09.664Z,82.23
2022-08-07T23:07:41.279Z,82.38
2022-08-07T23:10:05.452Z,82.42
2022-08-07T23:12:30.606Z,83.64
2022-08-07T23:14:47.426Z,83.48
2022-08-07T23:17:15.691Z,84.47
2022-08-07T23:19:51.091Z,83.84
2022-08-07T23:21:56.092Z,83.77
2022-08-07T23:24:11.854Z,83.89
2022-08-07T23:26:25.068Z,84.74
2022-08-07T23:28:56.377Z,85.07
2022-08-07T23:31:18.531Z,84.91
2022-08-07T23:34:35.500Z,85.34
2022-08-07T23:36:29.001Z,84.77
2022-08-07T23:38:54.495Z,84.69
2022-08-07T23:41:04.049Z,84.10
2022-08-07T23:43:38.095Z,84.55
2022-08-07T23:46:01.635Z,85.22
2022-08-07T23:48:25.421Z,85.40
2022-08-07T23:50:36.791Z,86.11
2022-08-07T23:53:01.318Z,86.41
2022-08-07T23:55:12.686Z,86.57
2022-08-07T23:57:37.581Z,86.67
